createdAt,value
2019-02-02T00:00:43.033Z,1.20
2019-02-02T00:03:10.114Z,1.20
2019-02-02T00:05:36.647Z,1.20
2019-02-02T00:08:04.093Z,1.20
2019-02-02T00:10:30.537Z,1.20
2019-02-02T00:12:56.910Z,1.20
2019-02-02T00:15:23.332Z,1.30
2019-02-02T00:17:50.209Z,1.30
2019-02-02T00:20:16.878Z,1.30
2019-02-02T00:22:43.281Z,1.30
2019-02-02T00:25:09.843Z,1.30
2019-02-02T00:27:41.647Z,1.30
2019-02-02T00:30:09.437Z,1.30
2019-02-02T00:32:35.789Z,1.30
2019-02-02T00:35:02.180Z,1.30
2019-02-02T00:37:28.642Z,1.30
2019-02-02T00:39:54.981Z,1.30
2019-02-02T00:42:21.343Z,1.30
2019-02-02T00:44:47.733Z,1.30
2019-02-02T00:47:14.232Z,1.30
2019-02-02T00:49:40.669Z,1.30
2019-02-02T00:52:07.567Z,1.40
2019-02-02T00:54:34.244Z,1.40
2019-02-02T00:57:00.643Z,1.30
2019-02-02T00:59:27.171Z,1.40
2019-02-02T01:01:53.578Z,1.40
2019-02-02T01:04:20.005Z,1.40
2019-02-02T01:06:46.385Z,1.40
2019-02-02T01:09:14.876Z,1.30
2019-02-02T01:11:41.428Z,1.40
2019-02-02T01:14:07.927Z,1.40
2019-02-02T01:16:34.313Z,1.40
2019-02-02T01:19:00.784Z,1.40
2019-02-02T01:21:27.156Z,1.40
2019-02-02T01:23:53.557Z,1.40
2019-02-02T01:26:19.895Z,1.40
2019-02-02T01:28:46.308Z,1.40
2019-02-02T01:31:12.787Z,1.50
2019-02-02T01:33:39.180Z,1.50
2019-02-02T01:36:05.561Z,1.50
2019-02-02T01:38:32.042Z,1.50
2019-02-02T01:40:58.535Z,1.50
2019-02-02T01:43:24.946Z,1.50
2019-02-02T01:45:51.349Z,1.60
2019-02-02T01:48:17.743Z,1.60
2019-02-02T01:50:44.183Z,1.60
2019-02-02T01:53:10.566Z,1.50
2019-02-02T01:55:36.975Z,1.50
2019-02-02T01:58:03.543Z,1.50
2019-02-02T02:00:31.797Z,1.50
2019-02-02T02:02:58.304Z,1.40
2019-02-02T02:05:24.732Z,1.50
2019-02-02T02:07:51.262Z,1.50
2019-02-02T02:10:18.951Z,1.50
2019-02-02T02:12:45.701Z,1.40
2019-02-02T02:15:14.477Z,1.50
2019-02-02T02:17:41.407Z,1.40
2019-02-02T02:20:10.465Z,1.40
2019-02-02T02:22:41.045Z,1.40
2019-02-02T02:25:08.278Z,1.40
2019-02-02T02:27:34.660Z,1.40
2019-02-02T02:30:01.092Z,1.40
2019-02-02T02:32:27.512Z,1.40
2019-02-02T02:34:53.880Z,1.40
2019-02-02T02:37:20.182Z,1.40
2019-02-02T02:39:46.559Z,1.40
2019-02-02T02:42:12.990Z,1.40
2019-02-02T02:44:39.381Z,1.40
2019-02-02T02:47:05.718Z,1.30
2019-02-02T02:49:33.227Z,1.40
2019-02-02T02:51:59.539Z,1.30
2019-02-02T02:54:25.922Z,1.40
2019-02-02T02:56:52.292Z,1.30
2019-02-02T02:59:18.661Z,1.40
2019-02-02T03:01:45.110Z,1.40
2019-02-02T03:04:11.430Z,1.50
2019-02-02T03:06:37.929Z,1.50
2019-02-02T03:09:06.905Z,1.50
2019-02-02T03:11:34.492Z,1.50
2019-02-02T03:14:00.817Z,1.50
2019-02-02T03:16:27.157Z,1.50
2019-02-02T03:18:54.507Z,1.50
2019-02-02T03:21:20.921Z,1.50
2019-02-02T03:23:47.408Z,1.50
2019-02-02T03:26:13.805Z,1.60
2019-02-02T03:28:40.159Z,1.50
2019-02-02T03:31:06.498Z,1.50
2019-02-02T03:33:32.852Z,1.50
2019-02-02T03:35:59.233Z,1.50
2019-02-02T03:38:25.580Z,1.50
2019-02-02T03:40:52.127Z,1.50
2019-02-02T03:43:18.485Z,1.50
2019-02-02T03:45:44.865Z,1.50
2019-02-02T03:48:11.197Z,1.50
2019-02-02T03:50:37.580Z,1.60
2019-02-02T03:53:03.895Z,1.50
2019-02-02T03:55:30.294Z,1.50
2019-02-02T03:57:56.704Z,1.60
2019-02-02T04:00:23.199Z,1.50
2019-02-02T04:02:49.570Z,1.50
2019-02-02T04:05:24.411Z,1.50
2019-02-02T04:07:52.224Z,1.60
2019-02-02T04:10:18.570Z,1.50
2019-02-02T04:12:45.063Z,1.50
2019-02-02T04:15:14.423Z,1.60
2019-02-02T04:17:40.859Z,1.60
2019-02-02T04:20:13.296Z,1.60
2019-02-02T04:22:39.828Z,1.60
2019-02-02T04:25:07.313Z,1.60
2019-02-02T04:27:33.628Z,1.60
2019-02-02T04:30:00.002Z,1.60
2019-02-02T04:32:26.396Z,1.60
2019-02-02T04:34:52.793Z,1.60
2019-02-02T04:37:19.140Z,1.60
2019-02-02T04:39:45.481Z,1.60
2019-02-02T04:42:11.876Z,1.60
2019-02-02T04:44:38.267Z,1.60
2019-02-02T04:47:04.690Z,1.60
2019-02-02T04:49:31.081Z,1.60
2019-02-02T04:51:57.491Z,1.60
2019-02-02T04:54:23.896Z,1.60
2019-02-02T04:56:50.248Z,1.60
2019-02-02T04:59:16.601Z,1.60
2019-02-02T05:01:42.974Z,1.70
2019-02-02T05:04:09.321Z,1.60
2019-02-02T05:06:35.714Z,1.60
2019-02-02T05:09:05.314Z,1.70
2019-02-02T05:11:32.201Z,1.70
2019-02-02T05:13:58.566Z,1.80
2019-02-02T05:16:24.923Z,1.70
2019-02-02T05:18:51.252Z,1.70
2019-02-02T05:21:17.658Z,1.70
2019-02-02T05:23:43.995Z,1.70
2019-02-02T05:26:10.358Z,1.60
2019-02-02T05:28:36.704Z,1.60
2019-02-02T05:31:03.191Z,1.60
2019-02-02T05:33:29.602Z,1.60
2019-02-02T05:35:55.968Z,1.60
2019-02-02T05:38:22.337Z,1.70
2019-02-02T05:40:48.739Z,1.60
2019-02-02T05:43:15.152Z,1.60
2019-02-02T05:45:41.530Z,1.60
2019-02-02T05:48:07.885Z,1.50
2019-02-02T05:50:34.278Z,1.50
2019-02-02T05:53:00.604Z,1.50
2019-02-02T05:55:27.007Z,1.50
2019-02-02T05:57:53.328Z,1.50
2019-02-02T06:00:33.131Z,1.50
2019-02-02T06:02:59.461Z,1.50
2019-02-02T06:05:25.889Z,1.50
2019-02-02T06:07:52.247Z,1.50
2019-02-02T06:10:19.086Z,1.40
2019-02-02T06:12:45.446Z,1.40
2019-02-02T06:15:12.515Z,1.40
2019-02-02T06:17:38.867Z,1.30
2019-02-02T06:20:08.838Z,1.30
2019-02-02T06:22:35.214Z,1.20
2019-02-02T06:25:01.634Z,1.20
2019-02-02T06:27:27.989Z,1.10
2019-02-02T06:30:04.038Z,1.10
2019-02-02T06:32:22.547Z,1.00
2019-02-02T06:34:48.961Z,1.00
2019-02-02T06:37:15.343Z,1.10
2019-02-02T06:39:41.696Z,1.10
2019-02-02T06:42:08.071Z,1.00
2019-02-02T06:44:34.403Z,1.00
2019-02-02T06:47:00.759Z,1.00
2019-02-02T06:49:27.120Z,0.90
2019-02-02T06:51:53.466Z,0.90
2019-02-02T06:54:19.895Z,1.00
2019-02-02T06:56:46.223Z,0.90
2019-02-02T06:59:12.586Z,1.00
2019-02-02T07:01:38.925Z,1.00
2019-02-02T07:04:05.300Z,1.10
2019-02-02T07:06:31.628Z,1.20
2019-02-02T07:08:58.015Z,1.20
2019-02-02T07:11:24.389Z,1.30
2019-02-02T07:13:51.585Z,1.30
2019-02-02T07:16:19.975Z,1.30
2019-02-02T07:18:47.342Z,1.40
2019-02-02T07:21:14.720Z,1.40
2019-02-02T07:23:42.136Z,1.50
2019-02-02T07:26:09.517Z,1.50
2019-02-02T07:28:36.185Z,1.50
2019-02-02T07:31:02.836Z,1.50
2019-02-02T07:33:29.249Z,1.60
2019-02-02T07:35:55.631Z,1.60
2019-02-02T07:38:22.134Z,1.70
2019-02-02T07:40:48.524Z,1.70
2019-02-02T07:43:14.946Z,1.70
2019-02-02T07:45:41.433Z,1.80
2019-02-02T07:48:07.809Z,1.80
2019-02-02T07:50:34.247Z,1.90
2019-02-02T07:53:00.602Z,1.80
2019-02-02T07:55:26.990Z,1.80
2019-02-02T07:57:53.384Z,1.80
2019-02-02T08:00:41.164Z,1.80
2019-02-02T08:03:06.197Z,1.90
2019-02-02T08:05:32.889Z,1.90
2019-02-02T08:07:59.335Z,2.00
2019-02-02T08:10:25.786Z,2.00
2019-02-02T08:12:52.217Z,2.10
2019-02-02T08:15:21.776Z,2.10
2019-02-02T08:17:48.135Z,2.20
2019-02-02T08:20:14.630Z,2.20
2019-02-02T08:22:41.056Z,2.30
2019-02-02T08:25:10.553Z,2.30
2019-02-02T08:27:37.155Z,2.30
2019-02-02T08:30:16.787Z,2.40
2019-02-02T08:32:44.409Z,2.40
2019-02-02T08:35:11.048Z,2.40
2019-02-02T08:37:37.533Z,2.40
2019-02-02T08:40:07.621Z,2.40
2019-02-02T08:42:34.124Z,2.40
2019-02-02T08:45:00.553Z,2.40
2019-02-02T08:47:27.170Z,2.40
2019-02-02T08:49:53.550Z,2.40
2019-02-02T08:52:20.026Z,2.40
2019-02-02T08:54:47.184Z,2.40
2019-02-02T08:57:13.813Z,2.40
2019-02-02T08:59:40.193Z,2.40
2019-02-02T09:02:06.636Z,2.40
2019-02-02T09:04:33.285Z,2.40
2019-02-02T09:07:00.247Z,2.50
2019-02-02T09:09:27.693Z,2.40
2019-02-02T09:11:54.154Z,2.50
2019-02-02T09:14:20.828Z,2.50
2019-02-02T09:16:47.439Z,2.50
2019-02-02T09:19:13.854Z,2.60
2019-02-02T09:21:40.254Z,2.60
2019-02-02T09:24:06.725Z,2.60
2019-02-02T09:26:33.113Z,2.70
2019-02-02T09:28:59.481Z,2.70
2019-02-02T09:31:25.895Z,2.70
2019-02-02T09:33:52.417Z,2.70
2019-02-02T09:36:18.946Z,2.80
2019-02-02T09:38:45.387Z,2.80
2019-02-02T09:41:11.844Z,2.90
2019-02-02T09:43:39.665Z,2.90
2019-02-02T09:46:06.924Z,2.90
2019-02-02T09:48:33.954Z,3.00
2019-02-02T09:51:00.450Z,3.00
2019-02-02T09:53:26.973Z,3.00
2019-02-02T09:55:53.825Z,3.00
2019-02-02T09:58:20.375Z,3.10
2019-02-02T10:00:47.210Z,3.10
2019-02-02T10:03:13.624Z,3.20
2019-02-02T10:05:40.128Z,3.20
2019-02-02T10:08:06.444Z,3.20
2019-02-02T10:10:33.556Z,3.30
2019-02-02T10:13:00.072Z,3.30
2019-02-02T10:15:27.533Z,3.30
2019-02-02T10:17:54.502Z,3.20
2019-02-02T10:20:29.648Z,3.20
2019-02-02T10:22:57.543Z,3.20
2019-02-02T10:25:26.939Z,3.10
2019-02-02T10:27:53.502Z,3.20
2019-02-02T10:30:32.385Z,3.10
2019-02-02T10:32:59.989Z,3.10
2019-02-02T10:35:26.801Z,3.20
2019-02-02T10:37:53.285Z,3.20
2019-02-02T10:40:19.812Z,3.20
2019-02-02T10:42:46.328Z,3.10
2019-02-02T10:45:14.698Z,3.10
2019-02-02T10:47:42.929Z,3.20
2019-02-02T10:50:12.897Z,3.20
2019-02-02T10:52:39.746Z,3.20
2019-02-02T10:55:09.410Z,3.20
2019-02-02T10:57:36.098Z,3.20
2019-02-02T11:00:06.265Z,3.20
2019-02-02T11:02:32.836Z,3.20
2019-02-02T11:04:59.300Z,3.20
2019-02-02T11:07:25.823Z,3.20
2019-02-02T11:09:52.220Z,3.20
2019-02-02T11:12:19.026Z,3.30
2019-02-02T11:14:45.773Z,3.30
2019-02-02T11:17:12.673Z,3.30
2019-02-02T11:19:39.083Z,3.30
2019-02-02T11:22:05.581Z,3.40
2019-02-02T11:24:32.100Z,3.40
2019-02-02T11:26:58.598Z,3.50
2019-02-02T11:29:24.969Z,3.60
2019-02-02T11:32:02.221Z,3.70
2019-02-02T11:34:19.593Z,3.90
2019-02-02T11:36:46.105Z,4.10
2019-02-02T11:39:12.525Z,4.30
2019-02-02T11:41:38.933Z,4.50
2019-02-02T11:44:05.308Z,4.70
2019-02-02T11:46:31.724Z,4.90
2019-02-02T11:48:58.193Z,5.00
2019-02-02T11:51:24.650Z,5.10
2019-02-02T11:53:51.102Z,5.10
2019-02-02T11:56:17.494Z,5.00
2019-02-02T11:58:44.421Z,5.00
2019-02-02T12:01:10.975Z,5.00
2019-02-02T12:03:38.001Z,5.00
2019-02-02T12:06:05.078Z,5.00
2019-02-02T12:08:31.526Z,4.90
2019-02-02T12:10:57.882Z,4.80
2019-02-02T12:13:24.300Z,4.80
2019-02-02T12:15:51.487Z,4.70
2019-02-02T12:18:17.957Z,4.60
2019-02-02T12:20:44.449Z,4.60
2019-02-02T12:23:10.900Z,4.60
2019-02-02T12:25:37.283Z,4.50
2019-02-02T12:28:04.574Z,4.50
2019-02-02T12:30:32.780Z,4.40
2019-02-02T12:33:03.027Z,4.40
2019-02-02T12:35:28.468Z,4.30
2019-02-02T12:37:55.643Z,4.40
2019-02-02T12:40:24.598Z,4.40
2019-02-02T12:42:51.090Z,4.40
2019-02-02T12:45:23.089Z,4.40
2019-02-02T12:47:49.563Z,4.40
2019-02-02T12:50:19.968Z,4.50
2019-02-02T12:52:46.434Z,4.50
2019-02-02T12:55:12.891Z,4.50
2019-02-02T12:57:39.288Z,4.40
2019-02-02T13:00:14.626Z,4.40
2019-02-02T13:02:41.019Z,4.40
2019-02-02T13:05:07.885Z,4.30
2019-02-02T13:07:34.247Z,4.30
2019-02-02T13:10:00.673Z,4.30
2019-02-02T13:12:27.025Z,4.40
2019-02-02T13:14:53.485Z,4.40
2019-02-02T13:17:19.972Z,4.50
2019-02-02T13:19:46.408Z,4.50
2019-02-02T13:22:12.833Z,4.50
2019-02-02T13:24:39.248Z,4.60
2019-02-02T13:27:05.652Z,4.60
2019-02-02T13:29:32.052Z,4.70
2019-02-02T13:31:58.508Z,4.80
2019-02-02T13:34:24.890Z,4.80
2019-02-02T13:36:51.223Z,4.80
2019-02-02T13:39:17.664Z,4.90
2019-02-02T13:41:44.061Z,4.80
2019-02-02T13:44:10.548Z,4.80
2019-02-02T13:46:36.913Z,4.70
2019-02-02T13:49:03.419Z,4.70
2019-02-02T13:51:29.757Z,4.70
2019-02-02T13:53:56.128Z,4.60
2019-02-02T13:56:22.549Z,4.60
2019-02-02T13:58:48.992Z,4.60
2019-02-02T14:01:15.371Z,4.50
2019-02-02T14:03:41.841Z,4.60
2019-02-02T14:06:08.330Z,4.50
2019-02-02T14:08:34.801Z,4.50
2019-02-02T14:11:01.162Z,4.50
2019-02-02T14:13:27.703Z,4.50
2019-02-02T14:15:54.116Z,4.40
2019-02-02T14:18:20.605Z,4.40
2019-02-02T14:20:50.013Z,4.40
2019-02-02T14:23:16.478Z,4.40
2019-02-02T14:25:42.863Z,4.40
2019-02-02T14:28:09.435Z,4.40
2019-02-02T14:30:35.954Z,4.50
2019-02-02T14:33:13.605Z,4.60
2019-02-02T14:35:31.848Z,4.60
2019-02-02T14:37:58.369Z,4.60
2019-02-02T14:40:24.872Z,4.50
2019-02-02T14:42:51.305Z,4.50
2019-02-02T14:45:26.742Z,4.50
2019-02-02T14:47:52.112Z,4.50
2019-02-02T14:50:20.082Z,4.50
2019-02-02T14:52:47.263Z,4.50
2019-02-02T14:55:16.395Z,4.50
2019-02-02T14:57:42.871Z,4.40
2019-02-02T15:00:13.093Z,4.40
2019-02-02T15:02:39.689Z,4.30
2019-02-02T15:05:09.501Z,4.30
2019-02-02T15:07:37.034Z,4.20
2019-02-02T15:10:07.139Z,4.20
2019-02-02T15:12:33.703Z,4.20
2019-02-02T15:15:00.185Z,4.10
2019-02-02T15:17:26.873Z,4.10
2019-02-02T15:19:53.222Z,4.10
2019-02-02T15:22:19.590Z,4.10
2019-02-02T15:24:46.000Z,4.10
2019-02-02T15:27:14.711Z,4.00
2019-02-02T15:29:40.566Z,4.00
2019-02-02T15:32:07.028Z,4.00
2019-02-02T15:34:34.118Z,4.00
2019-02-02T15:37:01.401Z,4.00
2019-02-02T15:39:28.026Z,4.00
2019-02-02T15:41:54.458Z,3.90
2019-02-02T15:44:20.937Z,3.90
2019-02-02T15:46:49.125Z,3.90
2019-02-02T15:49:15.579Z,3.80
2019-02-02T15:51:42.487Z,3.80
2019-02-02T15:54:09.233Z,3.80
2019-02-02T15:56:35.847Z,3.80
2019-02-02T15:59:02.536Z,3.80
2019-02-02T16:01:28.991Z,3.70
2019-02-02T16:03:55.526Z,3.70
2019-02-02T16:06:21.935Z,3.70
2019-02-02T16:08:48.366Z,3.70
2019-02-02T16:11:14.767Z,3.70
2019-02-02T16:13:41.280Z,3.60
2019-02-02T16:16:07.729Z,3.60
2019-02-02T16:18:34.133Z,3.60
2019-02-02T16:21:00.529Z,3.60
2019-02-02T16:23:27.960Z,3.60
2019-02-02T16:25:54.383Z,3.60
2019-02-02T16:28:20.787Z,3.60
2019-02-02T16:30:47.348Z,3.60
2019-02-02T16:33:14.931Z,3.60
2019-02-02T16:35:41.933Z,3.60
2019-02-02T16:38:09.788Z,3.60
2019-02-02T16:40:37.004Z,3.60
2019-02-02T16:43:04.144Z,3.60
2019-02-02T16:45:32.356Z,3.60
2019-02-02T16:47:58.918Z,3.50
2019-02-02T16:50:26.055Z,3.50
2019-02-02T16:52:52.881Z,3.60
2019-02-02T16:55:19.450Z,3.60
2019-02-02T16:57:46.858Z,3.60
2019-02-02T17:00:19.434Z,3.60
2019-02-02T17:02:46.009Z,3.60
2019-02-02T17:05:12.606Z,3.60
2019-02-02T17:07:41.596Z,3.60
2019-02-02T17:10:12.173Z,3.60
2019-02-02T17:12:39.044Z,3.60
2019-02-02T17:15:08.467Z,3.60
2019-02-02T17:17:34.967Z,3.60
2019-02-02T17:20:01.574Z,3.60
2019-02-02T17:22:28.273Z,3.60
2019-02-02T17:24:54.689Z,3.60
2019-02-02T17:27:21.290Z,3.60
2019-02-02T17:29:47.855Z,3.60
2019-02-02T17:32:14.311Z,3.70
2019-02-02T17:34:40.870Z,3.60
2019-02-02T17:37:07.644Z,3.70
2019-02-02T17:39:34.580Z,3.70
2019-02-02T17:42:03.847Z,3.70
2019-02-02T17:44:29.419Z,3.60
2019-02-02T17:46:55.891Z,3.70
2019-02-02T17:49:22.460Z,3.70
2019-02-02T17:51:48.915Z,3.70
2019-02-02T17:54:15.331Z,3.70
2019-02-02T17:56:41.788Z,3.70
2019-02-02T17:59:08.305Z,3.60
2019-02-02T18:01:34.762Z,3.60
2019-02-02T18:04:01.218Z,3.70
2019-02-02T18:06:27.814Z,3.70
2019-02-02T18:08:55.326Z,3.70
2019-02-02T18:11:21.765Z,3.70
2019-02-02T18:13:48.415Z,3.70
2019-02-02T18:16:14.865Z,3.70
2019-02-02T18:18:41.392Z,3.70
2019-02-02T18:21:07.839Z,3.70
2019-02-02T18:23:34.198Z,3.80
2019-02-02T18:26:00.894Z,3.80
2019-02-02T18:28:27.640Z,3.80
2019-02-02T18:30:54.180Z,3.80
2019-02-02T18:33:20.695Z,3.70
2019-02-02T18:35:47.305Z,3.70
2019-02-02T18:38:13.813Z,3.60
2019-02-02T18:40:40.309Z,3.50
2019-02-02T18:43:06.848Z,3.50
2019-02-02T18:45:33.267Z,3.70
2019-02-02T18:47:59.772Z,3.70
2019-02-02T18:50:26.358Z,3.90
2019-02-02T18:52:54.419Z,4.00
2019-02-02T18:55:23.794Z,4.10
2019-02-02T18:57:50.273Z,4.10
2019-02-02T19:00:19.088Z,4.20
2019-02-02T19:02:45.995Z,4.40
2019-02-02T19:05:13.418Z,4.60
2019-02-02T19:07:41.013Z,4.70
2019-02-02T19:10:13.563Z,4.90
2019-02-02T19:12:40.206Z,4.90
2019-02-02T19:15:08.831Z,5.00
2019-02-02T19:17:35.416Z,5.00
2019-02-02T19:20:05.277Z,5.00
2019-02-02T19:22:32.455Z,5.00
2019-02-02T19:24:59.376Z,5.00
2019-02-02T19:27:25.862Z,5.00
2019-02-02T19:29:52.673Z,5.10
2019-02-02T19:32:19.075Z,5.00
2019-02-02T19:34:45.567Z,5.00
2019-02-02T19:37:12.067Z,4.90
2019-02-02T19:39:38.432Z,4.90
2019-02-02T19:42:05.362Z,4.90
2019-02-02T19:44:31.842Z,4.90
2019-02-02T19:46:58.252Z,4.90
2019-02-02T19:49:24.674Z,4.90
2019-02-02T19:51:51.075Z,5.00
2019-02-02T19:54:17.555Z,5.00
2019-02-02T19:56:44.620Z,5.00
2019-02-02T19:59:11.342Z,5.10
2019-02-02T20:01:37.767Z,5.10
2019-02-02T20:04:06.592Z,5.10
2019-02-02T20:06:33.477Z,5.10
2019-02-02T20:09:00.389Z,5.20
2019-02-02T20:11:27.369Z,5.10
2019-02-02T20:13:55.189Z,5.10
2019-02-02T20:16:21.627Z,5.10
2019-02-02T20:18:48.037Z,5.10
2019-02-02T20:21:15.270Z,5.20
2019-02-02T20:23:43.166Z,5.20
2019-02-02T20:26:09.884Z,5.20
2019-02-02T20:28:36.305Z,5.20
2019-02-02T20:31:02.914Z,5.20
2019-02-02T20:33:30.568Z,5.20
2019-02-02T20:35:57.074Z,5.20
2019-02-02T20:38:23.523Z,5.20
2019-02-02T20:40:51.850Z,5.20
2019-02-02T20:43:18.254Z,5.20
2019-02-02T20:45:44.741Z,5.20
2019-02-02T20:48:11.302Z,5.20
2019-02-02T20:50:38.053Z,5.20
2019-02-02T20:53:04.863Z,5.20
2019-02-02T20:55:37.606Z,5.20
2019-02-02T20:58:05.193Z,5.10
2019-02-02T21:00:31.981Z,5.10
2019-02-02T21:02:58.829Z,5.10
2019-02-02T21:05:25.289Z,5.10
2019-02-02T21:07:51.660Z,5.00
2019-02-02T21:10:21.198Z,5.00
2019-02-02T21:12:47.679Z,5.00
2019-02-02T21:15:14.264Z,5.00
2019-02-02T21:17:43.178Z,4.90
2019-02-02T21:20:21.060Z,4.90
2019-02-02T21:22:48.120Z,4.80
2019-02-02T21:25:15.277Z,4.80
2019-02-02T21:27:42.274Z,4.80
2019-02-02T21:30:19.975Z,4.70
2019-02-02T21:32:47.412Z,4.70
2019-02-02T21:35:13.813Z,4.70
2019-02-02T21:37:40.402Z,4.60
2019-02-02T21:40:18.613Z,4.60
2019-02-02T21:42:45.464Z,4.50
2019-02-02T21:45:13.446Z,4.50
2019-02-02T21:47:41.062Z,4.50
2019-02-02T21:50:16.655Z,4.40
2019-02-02T21:52:44.692Z,4.40
2019-02-02T21:55:16.570Z,4.30
2019-02-02T21:57:43.239Z,4.30
2019-02-02T22:00:16.198Z,4.20
2019-02-02T22:02:42.741Z,4.20
2019-02-02T22:05:09.355Z,4.10
2019-02-02T22:07:36.343Z,4.10
2019-02-02T22:10:06.557Z,4.00
2019-02-02T22:12:33.021Z,4.00
2019-02-02T22:14:59.480Z,3.90
2019-02-02T22:17:26.498Z,3.80
2019-02-02T22:19:52.853Z,3.70
2019-02-02T22:22:19.266Z,3.60
2019-02-02T22:24:45.915Z,3.50
2019-02-02T22:27:12.487Z,3.40
2019-02-02T22:29:38.935Z,3.30
2019-02-02T22:32:05.859Z,3.30
2019-02-02T22:34:32.855Z,3.20
2019-02-02T22:36:59.475Z,3.20
2019-02-02T22:39:25.830Z,3.20
2019-02-02T22:41:52.394Z,3.20
2019-02-02T22:44:19.025Z,3.20
2019-02-02T22:46:45.563Z,3.20
2019-02-02T22:49:12.267Z,3.30
2019-02-02T22:51:38.709Z,3.30
2019-02-02T22:54:06.378Z,3.30
2019-02-02T22:56:32.905Z,3.20
2019-02-02T22:58:59.290Z,3.20
2019-02-02T23:01:27.961Z,3.20
2019-02-02T23:03:58.139Z,3.20
2019-02-02T23:06:40.781Z,3.20
2019-02-02T23:09:32.144Z,3.30
2019-02-02T23:12:18.269Z,3.20
2019-02-02T23:15:06.682Z,3.20
2019-02-02T23:17:33.352Z,3.20
2019-02-02T23:20:00.664Z,3.20
2019-02-02T23:22:27.556Z,3.20
2019-02-02T23:24:54.030Z,3.20
2019-02-02T23:27:20.442Z,3.20
2019-02-02T23:29:47.723Z,3.20
2019-02-02T23:32:14.784Z,3.30
2019-02-02T23:34:41.270Z,3.30
2019-02-02T23:37:07.801Z,3.20
2019-02-02T23:39:34.215Z,3.30
2019-02-02T23:42:00.770Z,3.20
2019-02-02T23:44:27.123Z,3.20
2019-02-02T23:46:53.504Z,3.20
2019-02-02T23:49:19.815Z,3.20
2019-02-02T23:51:46.385Z,3.20
2019-02-02T23:54:13.027Z,3.30
2019-02-02T23:56:40.869Z,3.30
2019-02-02T23:59:07.365Z,3.20
